sensor_id;sensor_type;location;lat;lon;timestamp;pressure;altitude;pressure_sealevel;temperature;humidity
8059;BME280;75058;42.668;23.396;2024-02-26T00:01:54;94735.25;;;8.08;65.55
8059;BME280;75058;42.668;23.396;2024-02-26T00:04:22;94730.38;;;8.11;65.26
8059;BME280;75058;42.668;23.396;2024-02-26T00:06:50;94733.91;;;7.99;65.93
8059;BME280;75058;42.668;23.396;2024-02-26T00:09:21;94727.63;;;8.06;65.61
8059;BME280;75058;42.668;23.396;2024-02-26T00:11:49;94717.13;;;7.52;67.39
8059;BME280;75058;42.668;23.396;2024-02-26T00:14:17;94718.38;;;7.43;67.25
8059;BME280;75058;42.668;23.396;2024-02-26T00:16:46;94720.25;;;7.60;66.95
8059;BME280;75058;42.668;23.396;2024-02-26T00:19:14;94730.31;;;7.57;67.20
8059;BME280;75058;42.668;23.396;2024-02-26T00:21:42;94722.16;;;7.71;67.33
8059;BME280;75058;42.668;23.396;2024-02-26T00:24:10;94723.50;;;7.56;68.78
8059;BME280;75058;42.668;23.396;2024-02-26T00:26:38;94723.41;;;7.38;71.27
8059;BME280;75058;42.668;23.396;2024-02-26T00:29:06;94720.72;;;7.26;71.74
8059;BME280;75058;42.668;23.396;2024-02-26T00:31:36;94721.25;;;7.59;70.50
8059;BME280;75058;42.668;23.396;2024-02-26T00:34:05;94714.25;;;7.35;71.47
8059;BME280;75058;42.668;23.396;2024-02-26T00:36:34;94709.81;;;7.36;70.93
8059;BME280;75058;42.668;23.396;2024-02-26T00:39:01;94702.19;;;7.16;71.94
8059;BME280;75058;42.668;23.396;2024-02-26T00:41:30;94702.81;;;7.36;71.29
8059;BME280;75058;42.668;23.396;2024-02-26T00:43:58;94715.16;;;7.47;71.06
8059;BME280;75058;42.668;23.396;2024-02-26T00:46:27;94700.41;;;7.59;70.61
8059;BME280;75058;42.668;23.396;2024-02-26T00:48:55;94700.00;;;7.62;70.83
8059;BME280;75058;42.668;23.396;2024-02-26T00:51:25;94693.94;;;7.68;70.39
8059;BME280;75058;42.668;23.396;2024-02-26T00:53:53;94697.97;;;7.64;70.26
8059;BME280;75058;42.668;23.396;2024-02-26T00:56:21;94697.34;;;7.69;70.37
8059;BME280;75058;42.668;23.396;2024-02-26T00:58:49;94689.53;;;7.69;69.50
8059;BME280;75058;42.668;23.396;2024-02-26T01:01:17;94683.97;;;7.84;69.34
8059;BME280;75058;42.668;23.396;2024-02-26T01:03:45;94682.53;;;7.88;68.96
8059;BME280;75058;42.668;23.396;2024-02-26T01:06:13;94681.88;;;7.74;69.28
8059;BME280;75058;42.668;23.396;2024-02-26T01:08:43;94678.03;;;7.76;69.84
8059;BME280;75058;42.668;23.396;2024-02-26T01:11:11;94684.16;;;7.64;69.49
8059;BME280;75058;42.668;23.396;2024-02-26T01:13:39;94688.59;;;7.82;69.35
8059;BME280;75058;42.668;23.396;2024-02-26T01:16:07;94683.47;;;7.75;68.60
8059;BME280;75058;42.668;23.396;2024-02-26T01:18:35;94682.91;;;7.91;67.68
8059;BME280;75058;42.668;23.396;2024-02-26T01:21:04;94668.78;;;7.80;68.08
8059;BME280;75058;42.668;23.396;2024-02-26T01:23:33;94678.13;;;7.88;67.48
8059;BME280;75058;42.668;23.396;2024-02-26T01:26:03;94677.25;;;7.94;67.97
8059;BME280;75058;42.668;23.396;2024-02-26T01:28:31;94678.31;;;7.68;68.27
8059;BME280;75058;42.668;23.396;2024-02-26T01:30:59;94670.34;;;7.63;69.20
8059;BME280;75058;42.668;23.396;2024-02-26T01:33:27;94673.84;;;7.75;68.29
8059;BME280;75058;42.668;23.396;2024-02-26T01:35:55;94673.97;;;7.80;68.55
8059;BME280;75058;42.668;23.396;2024-02-26T01:38:23;94678.25;;;7.75;68.90
8059;BME280;75058;42.668;23.396;2024-02-26T01:40:51;94679.53;;;7.66;69.69
8059;BME280;75058;42.668;23.396;2024-02-26T01:43:21;94669.78;;;7.79;69.73
8059;BME280;75058;42.668;23.396;2024-02-26T01:45:49;94674.84;;;7.74;69.26
8059;BME280;75058;42.668;23.396;2024-02-26T01:48:17;94667.97;;;7.62;69.84
8059;BME280;75058;42.668;23.396;2024-02-26T01:50:46;94669.41;;;7.58;70.09
8059;BME280;75058;42.668;23.396;2024-02-26T01:53:14;94660.84;;;7.51;70.14
8059;BME280;75058;42.668;23.396;2024-02-26T01:55:42;94660.91;;;7.44;71.14
8059;BME280;75058;42.668;23.396;2024-02-26T01:58:10;94653.34;;;7.18;71.95
8059;BME280;75058;42.668;23.396;2024-02-26T02:00:40;94656.03;;;7.30;71.46
8059;BME280;75058;42.668;23.396;2024-02-26T02:03:08;94663.63;;;7.07;73.20
8059;BME280;75058;42.668;23.396;2024-02-26T02:05:36;94653.66;;;7.28;71.97
8059;BME280;75058;42.668;23.396;2024-02-26T02:08:10;94649.72;;;7.44;71.65
8059;BME280;75058;42.668;23.396;2024-02-26T02:10:39;94658.25;;;7.51;71.20
8059;BME280;75058;42.668;23.396;2024-02-26T02:13:07;94652.91;;;7.64;70.76
8059;BME280;75058;42.668;23.396;2024-02-26T02:15:35;94655.22;;;7.72;70.88
8059;BME280;75058;42.668;23.396;2024-02-26T02:18:06;94638.97;;;7.95;70.21
8059;BME280;75058;42.668;23.396;2024-02-26T02:20:36;94645.34;;;7.99;69.55
8059;BME280;75058;42.668;23.396;2024-02-26T02:23:04;94651.56;;;7.98;69.53
8059;BME280;75058;42.668;23.396;2024-02-26T02:25:32;94646.72;;;8.01;69.10
8059;BME280;75058;42.668;23.396;2024-02-26T02:28:00;94648.31;;;8.02;69.01
8059;BME280;75058;42.668;23.396;2024-02-26T02:30:29;94652.06;;;8.06;69.05
8059;BME280;75058;42.668;23.396;2024-02-26T02:33:00;94648.97;;;8.34;67.35
8059;BME280;75058;42.668;23.396;2024-02-26T02:35:28;94652.94;;;8.36;67.49
8059;BME280;75058;42.668;23.396;2024-02-26T02:37:58;94651.47;;;8.40;67.23
8059;BME280;75058;42.668;23.396;2024-02-26T02:40:26;94663.22;;;8.13;68.21
8059;BME280;75058;42.668;23.396;2024-02-26T02:42:53;94666.28;;;8.10;68.10
8059;BME280;75058;42.668;23.396;2024-02-26T02:45:21;94659.38;;;7.98;68.71
8059;BME280;75058;42.668;23.396;2024-02-26T02:47:50;94655.09;;;8.21;67.67
8059;BME280;75058;42.668;23.396;2024-02-26T02:50:18;94661.69;;;8.24;67.19
8059;BME280;75058;42.668;23.396;2024-02-26T02:52:46;94657.00;;;8.14;66.85
8059;BME280;75058;42.668;23.396;2024-02-26T02:55:16;94663.75;;;8.04;68.10
8059;BME280;75058;42.668;23.396;2024-02-26T02:57:43;94656.44;;;8.12;67.35
8059;BME280;75058;42.668;23.396;2024-02-26T03:00:12;94659.19;;;7.99;68.80
8059;BME280;75058;42.668;23.396;2024-02-26T03:02:40;94664.81;;;8.14;67.82
8059;BME280;75058;42.668;23.396;2024-02-26T03:05:09;94663.38;;;8.18;68.11
8059;BME280;75058;42.668;23.396;2024-02-26T03:07:37;94671.03;;;8.13;68.34
8059;BME280;75058;42.668;23.396;2024-02-26T03:10:06;94671.31;;;8.05;68.17
8059;BME280;75058;42.668;23.396;2024-02-26T03:12:36;94676.97;;;8.20;67.16
8059;BME280;75058;42.668;23.396;2024-02-26T03:15:04;94664.94;;;8.19;66.70
8059;BME280;75058;42.668;23.396;2024-02-26T03:17:32;94679.72;;;8.43;66.99
8059;BME280;75058;42.668;23.396;2024-02-26T03:20:00;94662.88;;;8.57;66.08
8059;BME280;75058;42.668;23.396;2024-02-26T03:22:31;94664.47;;;8.29;66.75
8059;BME280;75058;42.668;23.396;2024-02-26T03:24:59;94665.09;;;8.06;67.63
8059;BME280;75058;42.668;23.396;2024-02-26T03:27:27;94660.25;;;7.92;68.73
8059;BME280;75058;42.668;23.396;2024-02-26T03:29:57;94654.47;;;7.47;70.53
8059;BME280;75058;42.668;23.396;2024-02-26T03:32:25;94653.94;;;7.63;69.97
8059;BME280;75058;42.668;23.396;2024-02-26T03:34:53;94650.41;;;7.75;69.68
8059;BME280;75058;42.668;23.396;2024-02-26T03:37:22;94649.84;;;7.73;69.74
8059;BME280;75058;42.668;23.396;2024-02-26T03:39:51;94653.94;;;7.63;69.97
8059;BME280;75058;42.668;23.396;2024-02-26T03:42:19;94650.59;;;7.56;70.81
8059;BME280;75058;42.668;23.396;2024-02-26T03:44:48;94651.69;;;7.24;71.51
8059;BME280;75058;42.668;23.396;2024-02-26T03:47:19;94649.44;;;7.27;71.63
8059;BME280;75058;42.668;23.396;2024-02-26T03:49:47;94645.31;;;7.20;71.57
8059;BME280;75058;42.668;23.396;2024-02-26T03:52:15;94650.75;;;7.18;71.73
8059;BME280;75058;42.668;23.396;2024-02-26T03:54:43;94640.00;;;7.33;71.84
8059;BME280;75058;42.668;23.396;2024-02-26T03:57:12;94650.56;;;7.38;71.04
8059;BME280;75058;42.668;23.396;2024-02-26T03:59:40;94644.81;;;7.29;71.95
8059;BME280;75058;42.668;23.396;2024-02-26T04:02:08;94643.41;;;7.33;71.17
8059;BME280;75058;42.668;23.396;2024-02-26T04:04:37;94647.31;;;7.42;71.58
8059;BME280;75058;42.668;23.396;2024-02-26T04:07:06;94642.50;;;7.46;71.56
8059;BME280;75058;42.668;23.396;2024-02-26T04:09:34;94636.31;;;7.65;70.84
8059;BME280;75058;42.668;23.396;2024-02-26T04:12:02;94644.41;;;7.32;71.55
8059;BME280;75058;42.668;23.396;2024-02-26T04:14:30;94640.22;;;7.31;71.71
8059;BME280;75058;42.668;23.396;2024-02-26T04:16:58;94638.97;;;7.34;71.29
8059;BME280;75058;42.668;23.396;2024-02-26T04:19:26;94629.59;;;7.33;71.38
8059;BME280;75058;42.668;23.396;2024-02-26T04:21:55;94624.41;;;7.33;71.75
8059;BME280;75058;42.668;23.396;2024-02-26T04:24:23;94630.25;;;7.28;71.88
8059;BME280;75058;42.668;23.396;2024-02-26T04:26:51;94631.09;;;7.22;72.07
8059;BME280;75058;42.668;23.396;2024-02-26T04:29:19;94625.28;;;6.95;72.81
8059;BME280;75058;42.668;23.396;2024-02-26T04:31:47;94630.41;;;6.84;73.09
8059;BME280;75058;42.668;23.396;2024-02-26T04:34:15;94627.88;;;6.71;73.71
8059;BME280;75058;42.668;23.396;2024-02-26T04:36:43;94631.84;;;6.80;73.65
8059;BME280;75058;42.668;23.396;2024-02-26T04:39:13;94631.88;;;6.73;72.96
8059;BME280;75058;42.668;23.396;2024-02-26T04:41:41;94641.69;;;6.71;73.62
8059;BME280;75058;42.668;23.396;2024-02-26T04:44:09;94632.72;;;6.61;73.69
8059;BME280;75058;42.668;23.396;2024-02-26T04:46:37;94630.97;;;6.55;74.05
8059;BME280;75058;42.668;23.396;2024-02-26T04:49:05;94631.44;;;6.45;74.46
8059;BME280;75058;42.668;23.396;2024-02-26T04:51:33;94632.84;;;6.48;73.58
8059;BME280;75058;42.668;23.396;2024-02-26T04:54:01;94641.47;;;6.35;73.84
8059;BME280;75058;42.668;23.396;2024-02-26T04:56:31;94634.13;;;6.32;74.04
8059;BME280;75058;42.668;23.396;2024-02-26T04:58:59;94646.53;;;6.23;73.85
8059;BME280;75058;42.668;23.396;2024-02-26T05:01:27;94635.81;;;6.13;74.29
8059;BME280;75058;42.668;23.396;2024-02-26T05:03:55;94646.16;;;6.20;73.90
8059;BME280;75058;42.668;23.396;2024-02-26T05:06:23;94649.41;;;6.09;74.25
8059;BME280;75058;42.668;23.396;2024-02-26T05:08:51;94651.97;;;6.53;73.03
8059;BME280;75058;42.668;23.396;2024-02-26T05:11:19;94641.34;;;6.61;72.95
8059;BME280;75058;42.668;23.396;2024-02-26T05:13:49;94658.50;;;6.69;72.79
8059;BME280;75058;42.668;23.396;2024-02-26T05:16:17;94659.22;;;6.76;72.23
8059;BME280;75058;42.668;23.396;2024-02-26T05:18:47;94663.34;;;6.90;71.93
8059;BME280;75058;42.668;23.396;2024-02-26T05:21:15;94668.16;;;6.86;71.43
8059;BME280;75058;42.668;23.396;2024-02-26T05:23:43;94669.13;;;6.92;71.54
8059;BME280;75058;42.668;23.396;2024-02-26T05:26:12;94673.91;;;6.95;71.48
8059;BME280;75058;42.668;23.396;2024-02-26T05:28:39;94677.72;;;6.99;71.42
8059;BME280;75058;42.668;23.396;2024-02-26T05:31:12;94674.66;;;7.02;71.17
8059;BME280;75058;42.668;23.396;2024-02-26T05:33:40;94676.72;;;6.93;71.83
8059;BME280;75058;42.668;23.396;2024-02-26T05:36:08;94679.28;;;7.00;71.87
8059;BME280;75058;42.668;23.396;2024-02-26T05:38:36;94689.22;;;7.10;71.17
8059;BME280;75058;42.668;23.396;2024-02-26T05:41:04;94696.69;;;7.31;71.50
8059;BME280;75058;42.668;23.396;2024-02-26T05:43:32;94693.69;;;7.27;71.05
8059;BME280;75058;42.668;23.396;2024-02-26T05:46:01;94691.72;;;7.47;70.38
8059;BME280;75058;42.668;23.396;2024-02-26T05:48:30;94691.09;;;7.52;70.68
8059;BME280;75058;42.668;23.396;2024-02-26T05:50:59;94688.03;;;7.55;70.21
8059;BME280;75058;42.668;23.396;2024-02-26T05:53:27;94695.28;;;7.53;70.36
8059;BME280;75058;42.668;23.396;2024-02-26T05:55:55;94691.94;;;7.46;70.81
8059;BME280;75058;42.668;23.396;2024-02-26T05:58:22;94696.88;;;7.54;70.79
8059;BME280;75058;42.668;23.396;2024-02-26T06:00:50;94699.50;;;7.72;70.24
8059;BME280;75058;42.668;23.396;2024-02-26T06:03:19;94701.97;;;7.67;70.07
8059;BME280;75058;42.668;23.396;2024-02-26T06:05:48;94635.44;;;7.28;69.80
8059;BME280;75058;42.668;23.396;2024-02-26T06:08:16;94704.66;;;7.78;69.54
8059;BME280;75058;42.668;23.396;2024-02-26T06:10:44;94707.41;;;7.84;69.49
8059;BME280;75058;42.668;23.396;2024-02-26T06:13:12;94714.75;;;7.93;69.29
8059;BME280;75058;42.668;23.396;2024-02-26T06:15:40;94715.28;;;7.77;69.80
8059;BME280;75058;42.668;23.396;2024-02-26T06:18:08;94718.59;;;7.66;70.03
8059;BME280;75058;42.668;23.396;2024-02-26T06:20:37;94722.56;;;7.68;70.39
8059;BME280;75058;42.668;23.396;2024-02-26T06:23:07;94718.69;;;7.53;70.15
8059;BME280;75058;42.668;23.396;2024-02-26T06:25:34;94715.84;;;7.61;70.42
8059;BME280;75058;42.668;23.396;2024-02-26T06:28:03;94712.31;;;7.49;70.51
8059;BME280;75058;42.668;23.396;2024-02-26T06:30:31;94718.66;;;7.35;70.53
8059;BME280;75058;42.668;23.396;2024-02-26T06:32:59;94667.44;;;6.79;71.93
8059;BME280;75058;42.668;23.396;2024-02-26T06:35:28;94719.19;;;7.12;71.57
8059;BME280;75058;42.668;23.396;2024-02-26T06:37:56;94715.94;;;7.23;71.61
8059;BME280;75058;42.668;23.396;2024-02-26T06:40:26;94716.91;;;7.29;70.99
8059;BME280;75058;42.668;23.396;2024-02-26T06:42:54;94688.53;;;7.21;70.74
8059;BME280;75058;42.668;23.396;2024-02-26T06:45:22;94725.25;;;7.37;71.38
8059;BME280;75058;42.668;23.396;2024-02-26T06:47:50;94716.81;;;7.42;70.86
8059;BME280;75058;42.668;23.396;2024-02-26T06:50:19;94717.38;;;7.68;70.65
8059;BME280;75058;42.668;23.396;2024-02-26T06:52:47;94719.28;;;7.79;69.92
8059;BME280;75058;42.668;23.396;2024-02-26T06:55:15;94715.72;;;7.74;70.07
8059;BME280;75058;42.668;23.396;2024-02-26T06:57:44;94701.66;;;7.57;70.25
8059;BME280;75058;42.668;23.396;2024-02-26T07:00:13;94714.16;;;7.48;70.86
8059;BME280;75058;42.668;23.396;2024-02-26T07:02:43;94715.94;;;7.48;71.19
8059;BME280;75058;42.668;23.396;2024-02-26T07:05:11;94704.09;;;7.52;71.09
8059;BME280;75058;42.668;23.396;2024-02-26T07:07:39;94712.97;;;7.69;70.37
8059;BME280;75058;42.668;23.396;2024-02-26T07:10:08;94723.44;;;8.05;69.39
8059;BME280;75058;42.668;23.396;2024-02-26T07:12:36;94718.44;;;8.22;68.54
8059;BME280;75058;42.668;23.396;2024-02-26T07:15:07;94720.59;;;8.31;68.26
8059;BME280;75058;42.668;23.396;2024-02-26T07:17:35;94730.63;;;8.46;67.78
8059;BME280;75058;42.668;23.396;2024-02-26T07:20:04;94723.97;;;8.50;67.58
8059;BME280;75058;42.668;23.396;2024-02-26T07:22:36;94733.97;;;8.53;67.45
8059;BME280;75058;42.668;23.396;2024-02-26T07:25:05;94726.00;;;8.48;67.52
8059;BME280;75058;42.668;23.396;2024-02-26T07:27:35;94686.22;;;8.52;67.29
8059;BME280;75058;42.668;23.396;2024-02-26T07:30:04;94724.56;;;8.82;66.92
8059;BME280;75058;42.668;23.396;2024-02-26T07:32:34;94702.28;;;8.68;66.68
8059;BME280;75058;42.668;23.396;2024-02-26T07:35:02;94722.59;;;8.47;67.83
8059;BME280;75058;42.668;23.396;2024-02-26T07:37:30;94734.53;;;8.55;67.55
8059;BME280;75058;42.668;23.396;2024-02-26T07:39:58;94730.34;;;8.54;67.46
8059;BME280;75058;42.668;23.396;2024-02-26T07:42:26;94722.16;;;8.50;68.16
8059;BME280;75058;42.668;23.396;2024-02-26T07:44:54;94726.66;;;8.62;68.26
8059;BME280;75058;42.668;23.396;2024-02-26T07:47:22;94738.72;;;8.74;67.45
8059;BME280;75058;42.668;23.396;2024-02-26T07:49:51;94733.03;;;8.77;67.22
8059;BME280;75058;42.668;23.396;2024-02-26T07:52:19;94730.59;;;8.82;67.13
8059;BME280;75058;42.668;23.396;2024-02-26T07:54:47;94718.84;;;8.91;67.17
8059;BME280;75058;42.668;23.396;2024-02-26T07:57:15;94727.25;;;9.05;67.10
8059;BME280;75058;42.668;23.396;2024-02-26T07:59:44;94726.75;;;9.26;66.09
8059;BME280;75058;42.668;23.396;2024-02-26T08:02:16;94723.41;;;9.49;66.21
8059;BME280;75058;42.668;23.396;2024-02-26T08:04:44;94721.59;;;9.61;64.80
8059;BME280;75058;42.668;23.396;2024-02-26T08:07:14;94711.84;;;9.68;64.59
8059;BME280;75058;42.668;23.396;2024-02-26T08:09:43;94713.09;;;9.65;64.82
8059;BME280;75058;42.668;23.396;2024-02-26T08:12:11;94716.03;;;9.57;64.65
8059;BME280;75058;42.668;23.396;2024-02-26T08:14:39;94710.34;;;9.60;64.36
8059;BME280;75058;42.668;23.396;2024-02-26T08:17:07;94703.78;;;9.69;63.87
8059;BME280;75058;42.668;23.396;2024-02-26T08:19:36;94711.25;;;9.77;64.23
8059;BME280;75058;42.668;23.396;2024-02-26T08:22:04;94713.53;;;10.08;63.20
8059;BME280;75058;42.668;23.396;2024-02-26T08:24:33;94714.94;;;10.11;63.36
8059;BME280;75058;42.668;23.396;2024-02-26T08:27:01;94701.50;;;10.31;62.12
8059;BME280;75058;42.668;23.396;2024-02-26T08:29:29;94701.69;;;10.41;61.99
8059;BME280;75058;42.668;23.396;2024-02-26T08:31:57;94710.88;;;10.55;62.50
8059;BME280;75058;42.668;23.396;2024-02-26T08:34:26;94716.09;;;10.55;63.06
8059;BME280;75058;42.668;23.396;2024-02-26T08:36:54;94722.31;;;10.26;64.34
8059;BME280;75058;42.668;23.396;2024-02-26T08:39:22;94714.13;;;10.22;64.65
8059;BME280;75058;42.668;23.396;2024-02-26T08:41:51;94707.44;;;10.66;63.54
8059;BME280;75058;42.668;23.396;2024-02-26T08:44:19;94696.28;;;10.99;61.00
8059;BME280;75058;42.668;23.396;2024-02-26T08:46:47;94696.69;;;10.79;60.64
8059;BME280;75058;42.668;23.396;2024-02-26T08:49:18;94701.44;;;10.82;60.08
8059;BME280;75058;42.668;23.396;2024-02-26T08:51:46;94702.69;;;11.08;59.38
8059;BME280;75058;42.668;23.396;2024-02-26T08:54:14;94712.69;;;11.55;58.33
8059;BME280;75058;42.668;23.396;2024-02-26T08:56:42;94701.97;;;11.40;58.54
8059;BME280;75058;42.668;23.396;2024-02-26T08:59:11;94716.41;;;11.59;59.06
8059;BME280;75058;42.668;23.396;2024-02-26T09:01:39;94705.88;;;11.88;57.79
8059;BME280;75058;42.668;23.396;2024-02-26T09:04:08;94704.09;;;12.10;57.08
8059;BME280;75058;42.668;23.396;2024-02-26T09:06:37;94702.75;;;11.57;58.42
8059;BME280;75058;42.668;23.396;2024-02-26T09:09:05;94701.97;;;11.57;58.38
8059;BME280;75058;42.668;23.396;2024-02-26T09:11:33;94690.63;;;11.85;56.41
8059;BME280;75058;42.668;23.396;2024-02-26T09:14:01;94690.13;;;12.04;56.98
8059;BME280;75058;42.668;23.396;2024-02-26T09:16:31;94698.69;;;12.00;56.61
8059;BME280;75058;42.668;23.396;2024-02-26T09:18:59;94695.31;;;11.99;56.48
8059;BME280;75058;42.668;23.396;2024-02-26T09:21:27;94691.28;;;12.13;55.53
8059;BME280;75058;42.668;23.396;2024-02-26T09:23:56;94679.03;;;12.19;56.74
8059;BME280;75058;42.668;23.396;2024-02-26T09:26:24;94685.66;;;12.43;55.95
8059;BME280;75058;42.668;23.396;2024-02-26T09:28:52;94687.19;;;12.87;55.24
8059;BME280;75058;42.668;23.396;2024-02-26T09:31:20;94672.84;;;13.48;52.76
8059;BME280;75058;42.668;23.396;2024-02-26T09:33:49;94676.34;;;13.27;53.68
8059;BME280;75058;42.668;23.396;2024-02-26T09:36:18;94671.69;;;13.34;52.92
8059;BME280;75058;42.668;23.396;2024-02-26T09:38:46;94669.59;;;13.09;53.78
8059;BME280;75058;42.668;23.396;2024-02-26T09:41:28;94668.19;;;13.97;51.12
8059;BME280;75058;42.668;23.396;2024-02-26T09:43:57;94669.28;;;14.01;50.61
8059;BME280;75058;42.668;23.396;2024-02-26T09:46:26;94667.09;;;13.88;50.97
8059;BME280;75058;42.668;23.396;2024-02-26T09:48:56;94633.50;;;13.27;52.39
8059;BME280;75058;42.668;23.396;2024-02-26T09:51:24;94667.66;;;13.95;50.85
8059;BME280;75058;42.668;23.396;2024-02-26T09:53:54;94667.75;;;14.10;50.69
8059;BME280;75058;42.668;23.396;2024-02-26T09:56:24;94674.34;;;14.13;50.94
8059;BME280;75058;42.668;23.396;2024-02-26T09:58:54;94658.59;;;14.18;50.91
8059;BME280;75058;42.668;23.396;2024-02-26T10:01:23;94662.94;;;13.24;52.35
8059;BME280;75058;42.668;23.396;2024-02-26T10:03:56;94666.19;;;14.09;49.69
8059;BME280;75058;42.668;23.396;2024-02-26T10:06:26;94659.53;;;13.60;51.47
8059;BME280;75058;42.668;23.396;2024-02-26T10:08:55;94669.06;;;13.71;51.26
8059;BME280;75058;42.668;23.396;2024-02-26T10:11:26;94660.41;;;14.12;49.21
8059;BME280;75058;42.668;23.396;2024-02-26T10:13:55;94655.00;;;14.34;48.85
8059;BME280;75058;42.668;23.396;2024-02-26T10:16:24;94661.72;;;14.61;47.85
8059;BME280;75058;42.668;23.396;2024-02-26T10:18:53;94645.81;;;13.94;49.48
8059;BME280;75058;42.668;23.396;2024-02-26T10:21:27;94637.28;;;14.19;48.51
8059;BME280;75058;42.668;23.396;2024-02-26T10:23:55;94650.72;;;14.18;49.00
8059;BME280;75058;42.668;23.396;2024-02-26T10:26:23;94646.38;;;14.43;48.54
8059;BME280;75058;42.668;23.396;2024-02-26T10:28:52;94640.03;;;14.34;48.59
8059;BME280;75058;42.668;23.396;2024-02-26T10:31:21;94632.28;;;14.18;48.41
8059;BME280;75058;42.668;23.396;2024-02-26T10:33:49;94633.09;;;13.81;49.27
8059;BME280;75058;42.668;23.396;2024-02-26T10:36:18;94624.50;;;13.91;49.50
8059;BME280;75058;42.668;23.396;2024-02-26T10:38:49;94630.94;;;13.68;49.88
8059;BME280;75058;42.668;23.396;2024-02-26T10:41:22;94626.75;;;14.19;49.75
8059;BME280;75058;42.668;23.396;2024-02-26T10:43:50;94625.44;;;14.89;47.73
8059;BME280;75058;42.668;23.396;2024-02-26T10:46:19;94627.97;;;14.58;48.76
8059;BME280;75058;42.668;23.396;2024-02-26T10:48:49;94613.34;;;14.98;47.55
8059;BME280;75058;42.668;23.396;2024-02-26T10:51:21;94595.34;;;13.98;49.31
8059;BME280;75058;42.668;23.396;2024-02-26T10:53:56;94610.53;;;14.32;48.80
8059;BME280;75058;42.668;23.396;2024-02-26T10:56:29;94607.50;;;14.14;49.40
8059;BME280;75058;42.668;23.396;2024-02-26T10:58:58;94599.53;;;13.93;48.02
8059;BME280;75058;42.668;23.396;2024-02-26T11:01:27;94607.75;;;14.07;48.90
8059;BME280;75058;42.668;23.396;2024-02-26T11:03:59;94597.03;;;13.72;49.75
8059;BME280;75058;42.668;23.396;2024-02-26T11:06:28;94602.09;;;14.35;48.10
8059;BME280;75058;42.668;23.396;2024-02-26T11:08:58;94601.53;;;14.28;46.95
8059;BME280;75058;42.668;23.396;2024-02-26T11:11:27;94596.88;;;14.40;46.64
8059;BME280;75058;42.668;23.396;2024-02-26T11:13:57;94596.09;;;13.93;47.77
8059;BME280;75058;42.668;23.396;2024-02-26T11:16:27;94600.97;;;15.08;46.39
8059;BME280;75058;42.668;23.396;2024-02-26T11:18:55;94599.94;;;15.34;44.76
8059;BME280;75058;42.668;23.396;2024-02-26T11:21:25;94593.84;;;14.84;46.17
8059;BME280;75058;42.668;23.396;2024-02-26T11:24:07;94603.97;;;14.35;47.05
8059;BME280;75058;42.668;23.396;2024-02-26T11:26:40;94604.13;;;15.05;45.91
8059;BME280;75058;42.668;23.396;2024-02-26T11:29:14;94605.47;;;15.28;45.17
8059;BME280;75058;42.668;23.396;2024-02-26T11:31:43;94598.00;;;14.69;45.88
8059;BME280;75058;42.668;23.396;2024-02-26T11:34:11;94601.50;;;15.15;45.15
8059;BME280;75058;42.668;23.396;2024-02-26T11:36:40;94604.41;;;15.09;46.04
8059;BME280;75058;42.668;23.396;2024-02-26T11:39:11;94585.63;;;14.70;46.64
8059;BME280;75058;42.668;23.396;2024-02-26T11:41:39;94600.38;;;14.76;46.72
8059;BME280;75058;42.668;23.396;2024-02-26T11:44:07;94599.94;;;15.09;46.93
8059;BME280;75058;42.668;23.396;2024-02-26T11:46:39;94594.13;;;15.37;45.47
8059;BME280;75058;42.668;23.396;2024-02-26T11:49:31;94592.81;;;15.30;45.23
8059;BME280;75058;42.668;23.396;2024-02-26T11:52:05;94587.56;;;15.45;44.91
8059;BME280;75058;42.668;23.396;2024-02-26T11:54:40;94591.75;;;15.11;45.25
8059;BME280;75058;42.668;23.396;2024-02-26T11:57:23;94590.97;;;15.25;45.64
8059;BME280;75058;42.668;23.396;2024-02-26T11:59:52;94595.69;;;15.18;45.63
8059;BME280;75058;42.668;23.396;2024-02-26T12:02:39;94588.06;;;15.27;44.57
8059;BME280;75058;42.668;23.396;2024-02-26T12:05:11;94584.34;;;15.78;43.02
8059;BME280;75058;42.668;23.396;2024-02-26T12:07:43;94593.88;;;15.44;44.13
8059;BME280;75058;42.668;23.396;2024-02-26T12:10:22;94539.56;;;15.08;44.49
8059;BME280;75058;42.668;23.396;2024-02-26T12:12:58;94593.09;;;15.59;43.98
8059;BME280;75058;42.668;23.396;2024-02-26T12:15:31;94592.84;;;15.45;44.42
8059;BME280;75058;42.668;23.396;2024-02-26T12:18:05;94584.34;;;14.83;44.09
8059;BME280;75058;42.668;23.396;2024-02-26T12:20:34;94588.22;;;14.45;44.77
8059;BME280;75058;42.668;23.396;2024-02-26T12:23:03;94591.22;;;15.19;43.23
8059;BME280;75058;42.668;23.396;2024-02-26T12:25:33;94589.34;;;14.99;44.11
8059;BME280;75058;42.668;23.396;2024-02-26T12:28:01;94591.22;;;15.84;41.89
8059;BME280;75058;42.668;23.396;2024-02-26T12:30:30;94582.81;;;15.12;42.52
8059;BME280;75058;42.668;23.396;2024-02-26T12:32:59;94583.31;;;15.59;41.44
8059;BME280;75058;42.668;23.396;2024-02-26T12:35:28;94588.03;;;15.82;42.11
8059;BME280;75058;42.668;23.396;2024-02-26T12:37:58;94585.13;;;15.84;41.49
8059;BME280;75058;42.668;23.396;2024-02-26T12:40:26;94590.97;;;15.15;42.72
8059;BME280;75058;42.668;23.396;2024-02-26T12:42:56;94581.94;;;15.87;41.43
8059;BME280;75058;42.668;23.396;2024-02-26T12:45:25;94587.03;;;15.48;42.19
8059;BME280;75058;42.668;23.396;2024-02-26T12:47:55;94580.25;;;16.26;41.28
8059;BME280;75058;42.668;23.396;2024-02-26T12:50:24;94578.22;;;16.08;41.08
8059;BME280;75058;42.668;23.396;2024-02-26T12:52:53;94551.59;;;15.99;41.48
8059;BME280;75058;42.668;23.396;2024-02-26T12:55:21;94573.00;;;16.47;39.88
8059;BME280;75058;42.668;23.396;2024-02-26T12:57:50;94575.69;;;16.42;40.10
8059;BME280;75058;42.668;23.396;2024-02-26T13:00:22;94576.72;;;15.62;42.45
8059;BME280;75058;42.668;23.396;2024-02-26T13:02:52;94572.50;;;15.76;41.90
8059;BME280;75058;42.668;23.396;2024-02-26T13:05:22;94571.06;;;16.13;40.83
8059;BME280;75058;42.668;23.396;2024-02-26T13:07:51;94570.13;;;15.69;41.22
8059;BME280;75058;42.668;23.396;2024-02-26T13:10:19;94565.66;;;15.34;40.84
8059;BME280;75058;42.668;23.396;2024-02-26T13:12:49;94559.59;;;15.44;41.15
8059;BME280;75058;42.668;23.396;2024-02-26T13:15:19;94568.03;;;15.41;41.15
8059;BME280;75058;42.668;23.396;2024-02-26T13:17:49;94570.41;;;15.07;42.36